createdAt,value
2018-03-07T00:00:55.691Z,-0.60
2018-03-07T00:03:24.714Z,-0.60
2018-03-07T00:05:54.338Z,-0.70
2018-03-07T00:08:23.058Z,-0.60
2018-03-07T00:10:52.697Z,-0.50
2018-03-07T00:13:21.974Z,-0.50
2018-03-07T00:15:51.474Z,-0.80
2018-03-07T00:18:20.975Z,-0.90
2018-03-07T00:20:50.450Z,-1.00
2018-03-07T00:23:19.499Z,-1.00
2018-03-07T00:25:48.209Z,-1.10
2018-03-07T00:28:17.143Z,-1.10
2018-03-07T00:30:46.155Z,-1.10
2018-03-07T00:33:15.928Z,-1.00
2018-03-07T00:35:44.671Z,-1.10
2018-03-07T00:38:13.393Z,-0.90
2018-03-07T00:40:42.450Z,-0.90
2018-03-07T00:43:11.619Z,-0.90
2018-03-07T00:45:40.450Z,-0.90
2018-03-07T00:48:09.500Z,-0.80
2018-03-07T00:50:38.271Z,-0.80
2018-03-07T00:53:07.021Z,-0.80
2018-03-07T00:55:35.706Z,-0.70
2018-03-07T00:58:04.079Z,-0.60
2018-03-07T01:00:32.854Z,-0.60
2018-03-07T01:03:01.540Z,-0.70
2018-03-07T01:05:31.004Z,-0.70
2018-03-07T01:07:59.741Z,-0.70
2018-03-07T01:10:28.502Z,-0.60
2018-03-07T01:12:57.642Z,-0.60
2018-03-07T01:15:26.310Z,-0.60
2018-03-07T01:17:55.441Z,-0.60
2018-03-07T01:20:24.462Z,-0.60
2018-03-07T01:22:53.373Z,-0.60
2018-03-07T01:25:22.099Z,-0.60
2018-03-07T01:27:51.094Z,-0.60
2018-03-07T01:30:19.780Z,-0.60
2018-03-07T01:32:48.548Z,-0.60
2018-03-07T01:35:18.433Z,-0.70
2018-03-07T01:37:47.402Z,-0.70
2018-03-07T01:40:16.409Z,-0.70
2018-03-07T01:42:45.301Z,-0.80
2018-03-07T01:45:14.029Z,-0.80
2018-03-07T01:47:43.550Z,-0.90
2018-03-07T01:50:12.615Z,-0.90
2018-03-07T01:52:41.664Z,-0.90
2018-03-07T01:55:10.624Z,-1.00
2018-03-07T01:57:40.150Z,-1.00
2018-03-07T02:00:08.857Z,-1.00
2018-03-07T02:02:37.966Z,-1.00
2018-03-07T02:05:07.050Z,-1.00
2018-03-07T02:07:35.766Z,-1.00
2018-03-07T02:10:04.486Z,-1.00
2018-03-07T02:12:33.275Z,-1.00
2018-03-07T02:15:03.293Z,-1.00
2018-03-07T02:17:33.162Z,-1.10
2018-03-07T02:20:02.140Z,-1.10
2018-03-07T02:22:31.090Z,-1.10
2018-03-07T02:25:00.793Z,-1.10
2018-03-07T02:27:30.619Z,-1.10
2018-03-07T02:30:00.523Z,-1.10
2018-03-07T02:32:30.412Z,-1.10
2018-03-07T02:34:59.499Z,-1.10
2018-03-07T02:37:28.365Z,-1.10
2018-03-07T02:39:57.245Z,-1.20
2018-03-07T02:42:26.114Z,-1.20
2018-03-07T02:44:55.158Z,-1.10
2018-03-07T02:47:23.890Z,-1.10
2018-03-07T02:49:53.743Z,-1.00
2018-03-07T02:52:22.596Z,-1.00
2018-03-07T02:54:52.400Z,-0.80
2018-03-07T02:57:21.108Z,-0.80
2018-03-07T02:59:50.216Z,-0.80
2018-03-07T03:02:19.077Z,-0.90
2018-03-07T03:04:47.955Z,-0.90
2018-03-07T03:07:16.838Z,-1.00
2018-03-07T03:09:45.536Z,-1.00
2018-03-07T03:12:14.513Z,-1.10
2018-03-07T03:14:43.414Z,-1.00
2018-03-07T03:17:12.270Z,-1.10
2018-03-07T03:19:41.130Z,-1.20
2018-03-07T03:22:09.526Z,-1.20
2018-03-07T03:24:38.293Z,-1.40
2018-03-07T03:27:07.483Z,-1.60
2018-03-07T03:29:36.168Z,-1.60
2018-03-07T03:32:05.181Z,-1.60
2018-03-07T03:34:35.055Z,-1.70
2018-03-07T03:37:04.198Z,-1.70
2018-03-07T03:39:32.885Z,-1.80
2018-03-07T03:42:01.648Z,-1.90
2018-03-07T03:44:30.625Z,-1.80
2018-03-07T03:46:59.311Z,-1.80
2018-03-07T03:49:28.015Z,-1.70
2018-03-07T03:51:57.087Z,-1.80
2018-03-07T03:54:26.179Z,-1.90
2018-03-07T03:56:55.100Z,-2.00
2018-03-07T03:59:24.810Z,-2.20
2018-03-07T04:01:53.779Z,-2.20
2018-03-07T04:04:22.468Z,-2.30
2018-03-07T04:06:51.451Z,-2.30
2018-03-07T04:09:20.426Z,-2.30
2018-03-07T04:11:49.277Z,-2.30
2018-03-07T04:14:18.985Z,-2.40
2018-03-07T04:16:48.448Z,-2.40
2018-03-07T04:19:17.611Z,-2.40
2018-03-07T04:21:46.515Z,-2.40
2018-03-07T04:24:15.223Z,-2.40
2018-03-07T04:26:43.966Z,-2.40
2018-03-07T04:29:13.450Z,-2.50
2018-03-07T04:31:42.971Z,-2.60
2018-03-07T04:34:12.826Z,-2.60
2018-03-07T04:36:41.550Z,-2.60
2018-03-07T04:39:10.547Z,-2.60
2018-03-07T04:41:39.474Z,-2.70
2018-03-07T04:44:09.291Z,-2.70
2018-03-07T04:46:38.219Z,-2.70
2018-03-07T04:49:06.949Z,-2.70
2018-03-07T04:51:35.629Z,-2.70
2018-03-07T04:54:05.186Z,-2.90
2018-03-07T04:56:33.886Z,-2.90
2018-03-07T04:59:02.786Z,-3.00
2018-03-07T05:01:31.483Z,-3.00
2018-03-07T05:04:00.270Z,-3.00
2018-03-07T05:06:30.130Z,-3.00
2018-03-07T05:08:58.850Z,-3.10
2018-03-07T05:11:27.570Z,-3.10
2018-03-07T05:13:56.368Z,-3.00
2018-03-07T05:16:25.072Z,-3.00
2018-03-07T05:18:54.557Z,-3.20
2018-03-07T05:21:23.277Z,-3.20
2018-03-07T05:23:52.229Z,-3.20
2018-03-07T05:26:20.969Z,-3.10
2018-03-07T05:28:49.710Z,-3.10
2018-03-07T05:31:18.489Z,-3.00
2018-03-07T05:33:47.264Z,-3.00
2018-03-07T05:36:15.606Z,-2.90
2018-03-07T05:38:44.366Z,-2.90
2018-03-07T05:41:13.089Z,-2.80
2018-03-07T05:43:42.214Z,-2.80
2018-03-07T05:46:10.985Z,-2.70
2018-03-07T05:48:40.058Z,-2.60
2018-03-07T05:51:09.968Z,-2.40
2018-03-07T05:53:38.814Z,-2.40
2018-03-07T05:56:07.710Z,-2.30
2018-03-07T05:58:37.550Z,-2.00
2018-03-07T06:01:06.411Z,-2.00
2018-03-07T06:03:35.275Z,-1.90
2018-03-07T06:06:04.136Z,-1.80
2018-03-07T06:08:33.632Z,-1.70
2018-03-07T06:11:02.338Z,-1.70
2018-03-07T06:13:31.108Z,-1.60
2018-03-07T06:16:00.662Z,-1.40
2018-03-07T06:18:29.510Z,-1.40
2018-03-07T06:20:59.263Z,-1.20
2018-03-07T06:23:28.211Z,-1.20
2018-03-07T06:25:57.731Z,-0.90
2018-03-07T06:28:26.498Z,-0.90
2018-03-07T06:30:56.524Z,-0.60
2018-03-07T06:33:25.525Z,-0.60
2018-03-07T06:35:55.987Z,-0.50
2018-03-07T06:38:26.185Z,-0.40
2018-03-07T06:40:56.046Z,-0.20
2018-03-07T06:43:25.030Z,-0.30
2018-03-07T06:45:54.063Z,-0.20
2018-03-07T06:48:22.890Z,0.00
2018-03-07T06:50:51.771Z,0.10
2018-03-07T06:53:20.606Z,0.30
2018-03-07T06:55:49.339Z,0.50
2018-03-07T06:58:18.066Z,0.50
2018-03-07T07:00:47.219Z,0.50
2018-03-07T07:03:15.874Z,0.70
2018-03-07T07:05:44.839Z,0.90
2018-03-07T07:08:13.776Z,1.30
2018-03-07T07:10:44.354Z,1.70
2018-03-07T07:13:14.465Z,2.10
2018-03-07T07:15:43.173Z,2.90
2018-03-07T07:18:12.209Z,4.40
2018-03-07T07:20:42.067Z,6.60
2018-03-07T07:23:10.970Z,6.60
2018-03-07T07:25:40.465Z,7.70
2018-03-07T07:28:09.482Z,8.80
2018-03-07T07:30:38.211Z,9.70
2018-03-07T07:33:06.625Z,10.00
2018-03-07T07:35:35.028Z,10.80
2018-03-07T07:38:03.746Z,11.60
2018-03-07T07:40:32.953Z,12.20
2018-03-07T07:43:01.419Z,12.10
2018-03-07T07:45:30.627Z,12.20
2018-03-07T07:47:59.409Z,12.10
2018-03-07T07:50:27.822Z,11.90
2018-03-07T07:52:56.103Z,12.30
2018-03-07T07:55:24.580Z,12.90
2018-03-07T07:57:53.042Z,13.50
2018-03-07T08:00:21.698Z,14.00
2018-03-07T08:02:50.114Z,14.80
2018-03-07T08:05:19.172Z,16.70
2018-03-07T08:07:47.419Z,18.00
2018-03-07T08:10:16.088Z,18.50
2018-03-07T08:12:44.603Z,18.80
2018-03-07T08:15:13.018Z,20.80
2018-03-07T08:17:42.570Z,23.40
2018-03-07T08:20:11.099Z,23.20
2018-03-07T08:22:40.429Z,22.00
2018-03-07T08:25:08.841Z,22.00
2018-03-07T08:27:37.380Z,21.50
2018-03-07T08:30:05.746Z,20.40
2018-03-07T08:32:34.958Z,19.30
2018-03-07T08:35:04.398Z,19.30
2018-03-07T08:37:32.818Z,19.30
2018-03-07T08:40:01.222Z,20.00
2018-03-07T08:42:29.994Z,20.30
2018-03-07T08:44:59.182Z,21.60
2018-03-07T08:47:27.885Z,21.50
2018-03-07T08:49:57.053Z,25.60
2018-03-07T08:52:25.503Z,25.50
2018-03-07T08:54:54.245Z,25.00
2018-03-07T08:57:23.421Z,24.60
2018-03-07T08:59:52.978Z,24.60
2018-03-07T09:02:21.831Z,23.40
2018-03-07T09:04:50.679Z,22.50
2018-03-07T09:07:20.550Z,18.90
2018-03-07T09:09:50.417Z,19.10
2018-03-07T09:12:18.867Z,19.10
2018-03-07T09:14:48.425Z,16.60
2018-03-07T09:17:17.115Z,16.60
2018-03-07T09:19:45.858Z,15.70
2018-03-07T09:22:15.071Z,15.50
2018-03-07T09:24:43.511Z,15.50
2018-03-07T09:27:12.448Z,15.60
2018-03-07T09:29:40.933Z,15.30
2018-03-07T09:32:09.446Z,14.10
2018-03-07T09:34:37.886Z,14.00
2018-03-07T09:37:06.885Z,14.30
2018-03-07T09:39:35.365Z,14.70
2018-03-07T09:42:03.783Z,15.00
2018-03-07T09:44:32.462Z,15.00
2018-03-07T09:47:01.326Z,15.00
2018-03-07T09:49:30.548Z,16.70
2018-03-07T09:51:59.008Z,16.60
2018-03-07T09:54:27.410Z,18.10
2018-03-07T09:56:55.957Z,19.10
2018-03-07T09:59:24.633Z,18.80
2018-03-07T10:01:53.890Z,21.20
2018-03-07T10:04:23.632Z,21.30
2018-03-07T10:06:52.558Z,21.20
2018-03-07T10:09:21.359Z,20.20
2018-03-07T10:11:49.752Z,18.40
2018-03-07T10:14:18.156Z,17.20
2018-03-07T10:16:46.570Z,17.30
2018-03-07T10:19:14.970Z,16.50
2018-03-07T10:21:43.374Z,16.60
2018-03-07T10:24:12.285Z,16.80
2018-03-07T10:26:40.698Z,18.20
2018-03-07T10:29:09.294Z,20.30
2018-03-07T10:31:37.693Z,20.90
2018-03-07T10:34:06.089Z,21.00
2018-03-07T10:36:34.493Z,20.80
2018-03-07T10:39:03.372Z,20.10
2018-03-07T10:41:31.774Z,19.10
2018-03-07T10:44:00.215Z,17.00
2018-03-07T10:46:28.662Z,15.80
2018-03-07T10:48:57.059Z,15.30
2018-03-07T10:51:25.754Z,15.50
2018-03-07T10:53:54.174Z,15.30
2018-03-07T10:56:22.581Z,15.40
2018-03-07T10:58:51.729Z,15.50
2018-03-07T11:01:20.199Z,15.50
2018-03-07T11:03:48.593Z,15.70
2018-03-07T11:06:16.793Z,16.00
2018-03-07T11:08:45.798Z,16.50
2018-03-07T11:11:14.954Z,17.00
2018-03-07T11:13:43.349Z,17.00
2018-03-07T11:16:11.821Z,17.60
2018-03-07T11:18:40.225Z,17.00
2018-03-07T11:21:08.490Z,16.70
2018-03-07T11:23:37.221Z,17.20
2018-03-07T11:26:05.979Z,18.40
2018-03-07T11:28:35.722Z,18.40
2018-03-07T11:31:04.346Z,18.40
2018-03-07T11:33:32.741Z,18.20
2018-03-07T11:36:01.205Z,17.60
2018-03-07T11:38:29.815Z,17.60
2018-03-07T11:40:58.269Z,17.30
2018-03-07T11:43:26.717Z,17.10
2018-03-07T11:45:55.882Z,14.90
2018-03-07T11:48:24.682Z,14.90
2018-03-07T11:50:54.475Z,14.80
2018-03-07T11:53:22.888Z,14.80
2018-03-07T11:55:52.382Z,16.20
2018-03-07T11:58:22.082Z,16.30
2018-03-07T12:00:50.493Z,16.30
2018-03-07T12:03:19.823Z,17.90
2018-03-07T12:05:48.229Z,17.80
2018-03-07T12:08:16.822Z,17.80
2018-03-07T12:10:45.670Z,17.70
2018-03-07T12:13:14.464Z,17.40
2018-03-07T12:15:42.855Z,17.40
2018-03-07T12:18:11.327Z,16.90
2018-03-07T12:20:40.038Z,17.50
2018-03-07T12:23:08.801Z,17.60
2018-03-07T12:25:37.210Z,17.70
2018-03-07T12:28:05.682Z,17.00
2018-03-07T12:30:34.308Z,16.70
2018-03-07T12:33:03.522Z,15.10
2018-03-07T12:35:32.011Z,15.10
2018-03-07T12:38:00.446Z,14.60
2018-03-07T12:40:29.031Z,13.90
2018-03-07T12:42:57.505Z,13.20
2018-03-07T12:45:25.953Z,12.60
2018-03-07T12:47:54.639Z,12.40
2018-03-07T12:50:23.087Z,12.20
2018-03-07T12:52:52.299Z,12.20
2018-03-07T12:55:21.054Z,12.20
2018-03-07T12:57:49.806Z,12.20
2018-03-07T13:00:19.771Z,12.10
2018-03-07T13:02:48.277Z,12.10
2018-03-07T13:05:16.972Z,12.10
2018-03-07T13:07:45.542Z,13.00
2018-03-07T13:10:14.901Z,14.50
2018-03-07T13:12:43.388Z,14.50
2018-03-07T13:15:12.092Z,14.60
2018-03-07T13:17:42.311Z,15.00
2018-03-07T13:20:10.883Z,14.90
2018-03-07T13:22:39.546Z,14.60
2018-03-07T13:25:08.389Z,15.00
2018-03-07T13:27:38.227Z,13.40
2018-03-07T13:30:06.691Z,13.40
2018-03-07T13:32:35.950Z,13.30
2018-03-07T13:35:04.881Z,13.30
2018-03-07T13:37:34.167Z,14.40
2018-03-07T13:40:03.333Z,16.10
2018-03-07T13:42:32.444Z,16.10
2018-03-07T13:45:01.299Z,17.20
2018-03-07T13:47:30.149Z,18.10
2018-03-07T13:50:00.035Z,19.50
2018-03-07T13:52:28.902Z,19.50
2018-03-07T13:54:57.366Z,19.90
2018-03-07T13:57:25.880Z,20.00
2018-03-07T13:59:54.653Z,18.60
2018-03-07T14:02:23.523Z,17.90
2018-03-07T14:04:52.414Z,17.20
2018-03-07T14:07:21.298Z,16.70
2018-03-07T14:09:50.950Z,15.10
2018-03-07T14:12:20.852Z,15.00
2018-03-07T14:14:49.751Z,15.00
2018-03-07T14:17:18.614Z,15.30
2018-03-07T14:19:47.429Z,14.90
2018-03-07T14:22:17.316Z,14.40
2018-03-07T14:24:46.183Z,14.30
2018-03-07T14:27:16.064Z,12.50
2018-03-07T14:29:44.932Z,12.40
2018-03-07T14:32:14.046Z,11.80
2018-03-07T14:34:42.761Z,10.90
2018-03-07T14:37:12.171Z,10.50
2018-03-07T14:39:41.427Z,10.40
2018-03-07T14:42:10.873Z,10.20
2018-03-07T14:44:39.431Z,10.30
2018-03-07T14:47:08.205Z,10.10
2018-03-07T14:49:37.827Z,9.90
2018-03-07T14:52:07.768Z,9.10
2018-03-07T14:54:36.627Z,9.10
2018-03-07T14:57:05.791Z,8.50
2018-03-07T14:59:35.201Z,8.50
2018-03-07T15:02:04.258Z,8.50
2018-03-07T15:04:33.134Z,8.40
2018-03-07T15:07:02.066Z,8.60
2018-03-07T15:09:31.152Z,8.20
2018-03-07T15:12:00.869Z,7.70
2018-03-07T15:14:30.581Z,7.70
2018-03-07T15:17:00.473Z,7.60
2018-03-07T15:19:29.328Z,7.60
2018-03-07T15:21:58.182Z,7.50
2018-03-07T15:24:26.634Z,7.20
2018-03-07T15:26:55.059Z,7.30
2018-03-07T15:29:24.069Z,7.40
2018-03-07T15:31:53.898Z,7.50
2018-03-07T15:34:22.779Z,7.50
2018-03-07T15:36:51.673Z,7.00
2018-03-07T15:39:21.217Z,6.90
2018-03-07T15:41:50.273Z,6.70
2018-03-07T15:44:19.213Z,6.60
2018-03-07T15:46:48.099Z,6.50
2018-03-07T15:49:16.970Z,6.30
2018-03-07T15:51:45.844Z,6.30
2018-03-07T15:54:14.700Z,6.20
2018-03-07T15:56:44.546Z,6.00
2018-03-07T15:59:14.361Z,5.50
2018-03-07T16:01:43.262Z,5.50
2018-03-07T16:04:12.171Z,5.40
2018-03-07T16:06:40.991Z,5.20
2018-03-07T16:09:09.822Z,5.00
2018-03-07T16:11:39.632Z,4.70
2018-03-07T16:14:09.379Z,4.50
2018-03-07T16:16:39.214Z,4.50
2018-03-07T16:19:08.252Z,4.40
2018-03-07T16:21:37.766Z,4.20
2018-03-07T16:24:06.843Z,4.10
2018-03-07T16:26:36.731Z,3.90
2018-03-07T16:29:05.820Z,3.90
2018-03-07T16:31:34.771Z,3.90
2018-03-07T16:34:09.605Z,3.70
2018-03-07T16:36:39.254Z,3.60
2018-03-07T16:39:09.101Z,3.60
2018-03-07T16:41:38.082Z,3.50
2018-03-07T16:44:07.064Z,3.40
2018-03-07T16:46:35.931Z,3.20
2018-03-07T16:49:04.759Z,3.10
2018-03-07T16:51:33.664Z,3.00
2018-03-07T16:54:03.529Z,2.70
2018-03-07T16:56:32.398Z,2.70
2018-03-07T16:59:01.268Z,2.50
2018-03-07T17:01:31.060Z,2.30
2018-03-07T17:04:00.018Z,2.20
2018-03-07T17:06:28.886Z,2.20
2018-03-07T17:08:57.742Z,2.20
2018-03-07T17:11:26.595Z,2.20
2018-03-07T17:13:55.487Z,2.10
2018-03-07T17:16:24.414Z,2.10
2018-03-07T17:18:53.923Z,2.10
2018-03-07T17:21:23.083Z,2.10
2018-03-07T17:23:51.933Z,1.90
2018-03-07T17:26:20.781Z,1.90
2018-03-07T17:28:49.693Z,1.80
2018-03-07T17:31:19.231Z,1.70
2018-03-07T17:33:49.022Z,1.70
2018-03-07T17:36:18.993Z,1.80
2018-03-07T17:38:48.148Z,1.70
2018-03-07T17:41:17.947Z,1.70
2018-03-07T17:43:46.885Z,1.70
2018-03-07T17:46:15.766Z,1.60
2018-03-07T17:48:45.274Z,1.50
2018-03-07T17:51:14.317Z,1.50
2018-03-07T17:53:43.964Z,1.60
2018-03-07T17:56:13.033Z,1.50
2018-03-07T17:58:42.531Z,1.50
2018-03-07T18:01:14.704Z,1.60
2018-03-07T18:03:44.369Z,1.60
2018-03-07T18:06:13.543Z,1.60
2018-03-07T18:08:42.572Z,1.60
2018-03-07T18:11:11.473Z,1.60
2018-03-07T18:13:41.032Z,1.60
2018-03-07T18:16:10.702Z,1.50
2018-03-07T18:18:40.071Z,1.50
2018-03-07T18:21:09.651Z,1.60
2018-03-07T18:23:38.861Z,1.60
2018-03-07T18:26:08.818Z,1.60
2018-03-07T18:28:38.312Z,1.50
2018-03-07T18:31:07.985Z,1.40
2018-03-07T18:33:37.815Z,1.50
2018-03-07T18:36:07.097Z,1.50
2018-03-07T18:38:36.849Z,1.60
2018-03-07T18:41:07.480Z,1.60
2018-03-07T18:43:37.310Z,1.60
2018-03-07T18:46:06.437Z,1.60
2018-03-07T18:48:36.281Z,1.50
2018-03-07T18:51:14.575Z,1.50
2018-03-07T18:53:58.422Z,1.60
2018-03-07T18:56:27.446Z,1.60
2018-03-07T18:58:57.315Z,1.60
2018-03-07T19:01:27.173Z,1.40
2018-03-07T19:03:56.107Z,1.40
2018-03-07T19:06:25.723Z,1.40
2018-03-07T19:08:54.807Z,1.50
2018-03-07T19:11:24.365Z,1.50
2018-03-07T19:13:53.340Z,1.50
2018-03-07T19:16:22.510Z,1.40
2018-03-07T19:18:51.962Z,1.40
2018-03-07T19:21:20.937Z,1.40
2018-03-07T19:23:51.087Z,1.40
2018-03-07T19:26:20.851Z,1.40
2018-03-07T19:28:50.566Z,1.40
2018-03-07T19:31:19.591Z,1.40
2018-03-07T19:33:48.605Z,1.50
2018-03-07T19:36:18.028Z,1.50
2018-03-07T19:38:47.142Z,1.40
2018-03-07T19:41:16.041Z,1.30
2018-03-07T19:43:44.911Z,1.20
2018-03-07T19:46:13.757Z,1.20
2018-03-07T19:48:42.610Z,1.10
2018-03-07T19:51:12.330Z,1.10
2018-03-07T19:53:41.384Z,1.00
2018-03-07T19:56:10.245Z,0.90
2018-03-07T19:58:39.815Z,0.90
2018-03-07T20:01:09.726Z,0.90
2018-03-07T20:03:39.512Z,0.80
2018-03-07T20:06:09.471Z,0.80
2018-03-07T20:08:39.670Z,0.70
2018-03-07T20:11:09.168Z,0.70
2018-03-07T20:13:38.290Z,0.70
2018-03-07T20:16:07.859Z,0.70
2018-03-07T20:18:37.122Z,0.70
2018-03-07T20:21:06.656Z,0.60
2018-03-07T20:23:35.727Z,0.60
2018-03-07T20:26:05.900Z,0.60
2018-03-07T20:28:35.662Z,0.70
2018-03-07T20:31:04.965Z,0.70
2018-03-07T20:33:34.965Z,0.70
2018-03-07T20:36:04.630Z,0.70
2018-03-07T20:38:36.397Z,0.70
2018-03-07T20:41:09.371Z,0.70
2018-03-07T20:43:40.787Z,0.70
2018-03-07T20:46:10.359Z,0.70
2018-03-07T20:48:39.391Z,0.60
2018-03-07T20:51:10.296Z,0.60
2018-03-07T20:53:40.147Z,0.60
2018-03-07T20:56:11.767Z,0.60
2018-03-07T20:58:43.359Z,0.70
2018-03-07T21:01:13.433Z,0.70
2018-03-07T21:03:42.709Z,0.70
2018-03-07T21:06:12.415Z,0.80
2018-03-07T21:08:43.068Z,0.80
2018-03-07T21:11:12.966Z,0.80
2018-03-07T21:13:42.041Z,0.90
2018-03-07T21:16:11.698Z,1.00
2018-03-07T21:18:44.174Z,1.00
2018-03-07T21:21:14.665Z,1.00
2018-03-07T21:23:44.181Z,1.00
2018-03-07T21:26:13.403Z,1.00
2018-03-07T21:28:43.151Z,1.00
2018-03-07T21:31:13.006Z,1.00
2018-03-07T21:33:42.717Z,1.00
2018-03-07T21:36:11.698Z,1.00
2018-03-07T21:38:40.585Z,1.10
2018-03-07T21:41:10.162Z,1.10
2018-03-07T21:43:40.129Z,1.20
2018-03-07T21:46:09.147Z,1.30
2018-03-07T21:48:39.470Z,1.30
2018-03-07T21:51:09.588Z,1.30
2018-03-07T21:53:39.472Z,1.30
2018-03-07T21:56:09.183Z,1.30
2018-03-07T21:58:38.341Z,1.20
2018-03-07T22:01:08.276Z,1.30
2018-03-07T22:03:38.002Z,1.30
2018-03-07T22:06:07.187Z,1.30
2018-03-07T22:08:37.867Z,1.30
2018-03-07T22:11:07.597Z,1.30
2018-03-07T22:13:37.503Z,1.40
2018-03-07T22:16:07.340Z,1.40
2018-03-07T22:18:36.566Z,1.40
2018-03-07T22:21:06.115Z,1.40
2018-03-07T22:23:35.938Z,1.40
2018-03-07T22:26:05.085Z,1.40
2018-03-07T22:28:34.646Z,1.60
2018-03-07T22:31:04.635Z,1.80
2018-03-07T22:33:33.682Z,1.80
2018-03-07T22:36:03.500Z,2.60
2018-03-07T22:38:32.360Z,2.60
2018-03-07T22:41:01.943Z,2.90
2018-03-07T22:43:31.264Z,2.80
2018-03-07T22:46:01.341Z,2.60
2018-03-07T22:48:30.843Z,2.60
2018-03-07T22:51:00.531Z,2.60
2018-03-07T22:53:30.385Z,2.80
2018-03-07T22:55:59.442Z,2.90
2018-03-07T22:58:29.379Z,3.10
2018-03-07T23:00:58.689Z,3.10
2018-03-07T23:03:27.787Z,3.70
2018-03-07T23:05:58.228Z,4.00
2018-03-07T23:08:28.593Z,4.10
2018-03-07T23:10:59.481Z,4.20
2018-03-07T23:13:28.550Z,4.20
2018-03-07T23:15:58.242Z,4.30
2018-03-07T23:18:28.043Z,4.20
2018-03-07T23:20:57.207Z,4.20
2018-03-07T23:23:26.078Z,4.20
2018-03-07T23:25:55.627Z,4.20
2018-03-07T23:28:24.663Z,4.10
2018-03-07T23:30:54.487Z,4.00
2018-03-07T23:33:24.211Z,4.00
2018-03-07T23:35:53.303Z,3.90
2018-03-07T23:38:23.120Z,3.90
2018-03-07T23:40:52.136Z,3.90
2018-03-07T23:43:20.993Z,3.90
2018-03-07T23:45:51.338Z,3.90
2018-03-07T23:48:20.430Z,3.90
2018-03-07T23:50:50.309Z,3.90
2018-03-07T23:53:19.376Z,3.90
2018-03-07T23:55:49.300Z,3.90
2018-03-07T23:58:18.216Z,4.00
